Time,TemperatureF,DewpointF,PressureIn,WindDirection,WindDirectionDegrees,WindSpeedMPH,WindSpeedGustMPH,Humidity,HourlyPrecipIn,Conditions,Clouds,dailyrainin,SolarRadiationWatts/m^2,SoftwareType,DateUTC
2013-01-06 16:01:00,39.0,24.0,-100.00,SW,225,5.0,16.0,54,0.00,,,0.01,0.000000,,2013-01-06 21:01:00,
2013-01-06 16:33:00,39.0,24.0,-100.00,SW,225,5.0,16.0,54,0.00,,,0.01,0.000000,,2013-01-06 21:33:00,
2013-01-06 16:43:00,39.0,24.0,-100.00,SW,225,5.0,16.0,54,0.00,,,0.01,0.000000,,2013-01-06 21:43:00,
2013-01-06 16:53:00,39.0,24.0,-100.00,SW,225,5.0,16.0,54,0.00,,,0.01,0.000000,,2013-01-06 21:53:00,
2013-01-06 17:01:00,38.0,24.0,-100.00,WSW,238,3.0,15.0,56,0.00,,,0.01,0.000000,,2013-01-06 22:01:00,
2013-01-06 17:33:00,38.0,24.0,-100.00,WSW,238,3.0,15.0,56,0.00,,,0.01,0.000000,,2013-01-06 22:33:00,
2013-01-06 17:43:00,38.0,24.0,-100.00,WSW,238,3.0,15.0,56,0.00,,,0.01,0.000000,,2013-01-06 22:43:00,
2013-01-06 17:53:00,38.0,24.0,-100.00,WSW,238,3.0,15.0,56,0.00,,,0.01,0.000000,,2013-01-06 22:53:00,
2013-01-06 18:01:00,38.0,24.0,-100.00,WSW,255,3.0,9.0,56,0.00,,,0.01,0.000000,,2013-01-06 23:01:00,
2013-01-06 18:33:00,38.0,24.0,-100.00,WSW,255,3.0,9.0,56,0.00,,,0.01,0.000000,,2013-01-06 23:33:00,
2013-01-06 18:43:00,38.0,24.0,-100.00,WSW,255,3.0,9.0,56,0.00,,,0.01,0.000000,,2013-01-06 23:43:00,
2013-01-06 18:53:00,38.0,24.0,-100.00,WSW,255,3.0,9.0,56,0.00,,,0.01,0.000000,,2013-01-06 23:53:00,
2013-01-06 19:01:00,38.0,23.0,-100.00,WSW,247,3.0,10.0,55,0.00,,,0.01,0.000000,,2013-01-07 00:01:00,
2013-01-06 19:33:00,38.0,23.0,-100.00,WSW,247,3.0,10.0,55,0.00,,,0.01,0.000000,,2013-01-07 00:33:00,
2013-01-06 19:43:00,38.0,23.0,-100.00,WSW,247,3.0,10.0,55,0.00,,,0.01,0.000000,,2013-01-07 00:43:00,
2013-01-06 19:53:00,38.0,23.0,-100.00,WSW,247,3.0,10.0,55,0.00,,,0.01,0.000000,,2013-01-07 00:53:00,
2013-01-06 20:01:00,37.0,23.0,-100.00,SW,226,2.0,13.0,56,0.00,,,0.01,0.000000,,2013-01-07 01:01:00,
2013-01-06 20:23:00,37.0,23.0,-100.00,SW,226,2.0,13.0,56,0.00,,,0.01,0.000000,,2013-01-07 01:23:00,
2013-01-06 20:32:00,37.0,23.0,-100.00,SW,226,2.0,13.0,56,0.00,,,0.01,0.000000,,2013-01-07 01:32:00,
2013-01-06 20:43:00,37.0,23.0,-100.00,SW,226,2.0,13.0,56,0.00,,,0.01,0.000000,,2013-01-07 01:43:00,
2013-01-06 20:53:00,37.0,23.0,-100.00,SW,226,2.0,13.0,56,0.00,,,0.01,0.000000,,2013-01-07 01:53:00,
2013-01-06 21:01:00,38.0,24.0,-100.00,WNW,286,5.0,9.0,56,0.00,,,0.01,0.000000,,2013-01-07 02:01:00,
2013-01-06 21:23:00,38.0,24.0,-100.00,WNW,286,5.0,9.0,56,0.00,,,0.01,0.000000,,2013-01-07 02:23:00,
2013-01-06 21:32:00,38.0,24.0,-100.00,WNW,286,5.0,9.0,56,0.00,,,0.01,0.000000,,2013-01-07 02:32:00,
2013-01-06 21:43:00,38.0,24.0,-100.00,WNW,286,5.0,9.0,56,0.00,,,0.01,0.000000,,2013-01-07 02:43:00,
2013-01-06 21:53:00,38.0,24.0,-100.00,WNW,286,5.0,9.0,56,0.00,,,0.01,0.000000,,2013-01-07 02:53:00,
2013-01-06 22:01:00,38.0,24.0,-100.00,WNW,294,3.0,11.0,57,0.00,,,0.01,0.000000,,2013-01-07 03:01:00,
2013-01-06 22:23:00,38.0,24.0,-100.00,WNW,294,3.0,11.0,57,0.00,,,0.01,0.000000,,2013-01-07 03:23:00,
2013-01-06 22:33:00,38.0,24.0,-100.00,WNW,294,3.0,11.0,57,0.00,,,0.01,0.000000,,2013-01-07 03:33:00,
2013-01-06 22:43:00,38.0,24.0,-100.00,WNW,294,3.0,11.0,57,0.00,,,0.01,0.000000,,2013-01-07 03:43:00,
2013-01-06 22:53:00,38.0,24.0,-100.00,WNW,294,3.0,11.0,57,0.00,,,0.01,0.000000,,2013-01-07 03:53:00,
2013-01-06 23:01:00,38.0,25.0,-100.00,West,268,4.0,10.0,58,0.00,,,0.01,0.000000,,2013-01-07 04:01:00,
2013-01-06 23:33:00,38.0,25.0,-100.00,West,268,4.0,10.0,58,0.00,,,0.01,0.000000,,2013-01-07 04:33:00,
2013-01-06 23:42:00,38.0,25.0,-100.00,West,268,4.0,10.0,58,0.00,,,0.01,0.000000,,2013-01-07 04:42:00,
2013-01-06 23:52:00,38.0,25.0,-100.00,West,268,4.0,10.0,58,0.00,,,0.01,0.000000,,2013-01-07 04:52:00,